sensor_id;sensor_type;location;lat;lon;timestamp;pressure;altitude;pressure_sealevel;temperature;humidity
52291;BME280;39663;45.432;28.050;2024-01-30T00:00:04;103806.97;;;6.49;36.69
52291;BME280;39663;45.432;28.050;2024-01-30T00:00:36;103812.05;;;6.46;36.33
52291;BME280;39663;45.432;28.050;2024-01-30T00:01:07;103810.02;;;6.27;38.45
52291;BME280;39663;45.432;28.050;2024-01-30T00:01:38;103808.09;;;6.94;37.72
52291;BME280;39663;45.432;28.050;2024-01-30T00:02:10;103807.40;;;7.29;37.63
52291;BME280;39663;45.432;28.050;2024-01-30T00:02:41;103806.87;;;6.87;36.86
52291;BME280;39663;45.432;28.050;2024-01-30T00:03:12;103805.02;;;7.31;37.88
52291;BME280;39663;45.432;28.050;2024-01-30T00:03:44;103805.82;;;7.65;37.25
52291;BME280;39663;45.432;28.050;2024-01-30T00:04:15;103801.56;;;6.90;36.02
52291;BME280;39663;45.432;28.050;2024-01-30T00:04:47;103803.55;;;6.75;36.66
52291;BME280;39663;45.432;28.050;2024-01-30T00:05:18;103803.96;;;6.92;37.99
52291;BME280;39663;45.432;28.050;2024-01-30T00:05:49;103801.39;;;6.88;36.37
52291;BME280;39663;45.432;28.050;2024-01-30T00:06:20;103803.19;;;7.21;37.77
52291;BME280;39663;45.432;28.050;2024-01-30T00:06:52;103804.77;;;7.56;37.44
52291;BME280;39663;45.432;28.050;2024-01-30T00:07:24;103806.16;;;7.85;37.38
52291;BME280;39663;45.432;28.050;2024-01-30T00:07:55;103805.31;;;7.58;37.14
52291;BME280;39663;45.432;28.050;2024-01-30T00:08:26;103805.50;;;7.59;35.28
52291;BME280;39663;45.432;28.050;2024-01-30T00:08:59;103803.94;;;7.13;37.20
52291;BME280;39663;45.432;28.050;2024-01-30T00:09:30;103805.09;;;7.24;36.89
52291;BME280;39663;45.432;28.050;2024-01-30T00:10:01;103807.41;;;7.69;37.10
52291;BME280;39663;45.432;28.050;2024-01-30T00:10:33;103805.39;;;7.94;36.50
52291;BME280;39663;45.432;28.050;2024-01-30T00:11:04;103803.58;;;7.72;34.96
52291;BME280;39663;45.432;28.050;2024-01-30T00:11:35;103805.37;;;6.28;36.82
52291;BME280;39663;45.432;28.050;2024-01-30T00:12:07;103805.47;;;6.63;36.67
52291;BME280;39663;45.432;28.050;2024-01-30T00:12:39;103799.19;;;6.67;36.70
52291;BME280;39663;45.432;28.050;2024-01-30T00:13:10;103802.83;;;7.17;37.04
52291;BME280;39663;45.432;28.050;2024-01-30T00:13:42;103802.08;;;7.52;37.31
52291;BME280;39663;45.432;28.050;2024-01-30T00:14:13;103801.65;;;7.77;37.23
52291;BME280;39663;45.432;28.050;2024-01-30T00:14:45;103799.27;;;7.67;37.46
52291;BME280;39663;45.432;28.050;2024-01-30T00:15:16;103798.90;;;7.29;36.08
52291;BME280;39663;45.432;28.050;2024-01-30T00:15:47;103802.84;;;6.37;36.78
52291;BME280;39663;45.432;28.050;2024-01-30T00:16:21;103800.45;;;6.24;39.35
52291;BME280;39663;45.432;28.050;2024-01-30T00:16:52;103797.21;;;6.80;38.07
52291;BME280;39663;45.432;28.050;2024-01-30T00:17:23;103801.32;;;6.32;36.89
52291;BME280;39663;45.432;28.050;2024-01-30T00:17:55;103802.50;;;6.37;37.92
52291;BME280;39663;45.432;28.050;2024-01-30T00:18:26;103805.52;;;6.51;36.93
52291;BME280;39663;45.432;28.050;2024-01-30T00:18:57;103800.16;;;6.89;38.77
52291;BME280;39663;45.432;28.050;2024-01-30T00:19:29;103800.95;;;7.17;37.47
52291;BME280;39663;45.432;28.050;2024-01-30T00:20:00;103800.36;;;6.87;37.19
52291;BME280;39663;45.432;28.050;2024-01-30T00:20:32;103803.65;;;6.19;37.18
52291;BME280;39663;45.432;28.050;2024-01-30T00:21:03;103799.42;;;6.00;37.29
52291;BME280;39663;45.432;28.050;2024-01-30T00:21:34;103800.87;;;5.48;37.80
52291;BME280;39663;45.432;28.050;2024-01-30T00:22:06;103803.74;;;4.95;38.95
52291;BME280;39663;45.432;28.050;2024-01-30T00:22:37;103801.49;;;5.67;40.93
52291;BME280;39663;45.432;28.050;2024-01-30T00:23:08;103803.26;;;5.84;38.71
52291;BME280;39663;45.432;28.050;2024-01-30T00:23:40;103800.20;;;4.68;39.42
52291;BME280;39663;45.432;28.050;2024-01-30T00:24:11;103799.06;;;5.85;40.57
52291;BME280;39663;45.432;28.050;2024-01-30T00:24:43;103801.02;;;5.61;38.25
52291;BME280;39663;45.432;28.050;2024-01-30T00:25:14;103799.17;;;5.32;39.28
52291;BME280;39663;45.432;28.050;2024-01-30T00:25:46;103802.95;;;6.14;38.93
52291;BME280;39663;45.432;28.050;2024-01-30T00:26:17;103803.04;;;5.92;38.79
52291;BME280;39663;45.432;28.050;2024-01-30T00:26:48;103801.77;;;5.71;40.27
52291;BME280;39663;45.432;28.050;2024-01-30T00:27:20;103798.81;;;6.63;39.73
52291;BME280;39663;45.432;28.050;2024-01-30T00:27:51;103801.98;;;5.85;38.45
52291;BME280;39663;45.432;28.050;2024-01-30T00:28:22;103800.44;;;5.83;39.58
52291;BME280;39663;45.432;28.050;2024-01-30T00:28:54;103799.86;;;6.60;39.36
52291;BME280;39663;45.432;28.050;2024-01-30T00:29:25;103796.12;;;6.70;39.31
52291;BME280;39663;45.432;28.050;2024-01-30T00:29:56;103794.65;;;7.30;39.08
52291;BME280;39663;45.432;28.050;2024-01-30T00:30:27;103794.18;;;6.28;37.79
52291;BME280;39663;45.432;28.050;2024-01-30T00:30:59;103795.78;;;6.94;38.81
52291;BME280;39663;45.432;28.050;2024-01-30T00:31:31;103798.27;;;6.86;38.89
52291;BME280;39663;45.432;28.050;2024-01-30T00:32:03;103797.64;;;5.61;38.60
52291;BME280;39663;45.432;28.050;2024-01-30T00:32:34;103795.37;;;6.28;38.53
52291;BME280;39663;45.432;28.050;2024-01-30T00:33:05;103798.31;;;6.82;37.88
52291;BME280;39663;45.432;28.050;2024-01-30T00:33:37;103797.73;;;6.47;38.63
52291;BME280;39663;45.432;28.050;2024-01-30T00:34:08;103793.62;;;7.01;38.40
52291;BME280;39663;45.432;28.050;2024-01-30T00:34:42;103792.13;;;7.13;37.61
52291;BME280;39663;45.432;28.050;2024-01-30T00:35:13;103793.68;;;7.46;37.14
52291;BME280;39663;45.432;28.050;2024-01-30T00:35:44;103791.90;;;7.41;38.04
52291;BME280;39663;45.432;28.050;2024-01-30T00:36:16;103794.30;;;7.51;38.75
52291;BME280;39663;45.432;28.050;2024-01-30T00:36:47;103788.95;;;7.75;37.75
52291;BME280;39663;45.432;28.050;2024-01-30T00:37:19;103789.82;;;7.83;36.37
52291;BME280;39663;45.432;28.050;2024-01-30T00:37:50;103787.14;;;7.89;37.45
52291;BME280;39663;45.432;28.050;2024-01-30T00:38:21;103785.94;;;7.60;37.84
52291;BME280;39663;45.432;28.050;2024-01-30T00:38:53;103787.92;;;7.26;37.22
52291;BME280;39663;45.432;28.050;2024-01-30T00:39:24;103789.96;;;7.65;38.23
52291;BME280;39663;45.432;28.050;2024-01-30T00:39:56;103790.05;;;8.08;37.97
52291;BME280;39663;45.432;28.050;2024-01-30T00:40:27;103789.46;;;7.59;36.68
52291;BME280;39663;45.432;28.050;2024-01-30T00:40:58;103791.09;;;7.56;36.13
52291;BME280;39663;45.432;28.050;2024-01-30T00:41:29;103791.62;;;7.59;37.82
52291;BME280;39663;45.432;28.050;2024-01-30T00:42:01;103789.78;;;7.71;38.01
52291;BME280;39663;45.432;28.050;2024-01-30T00:42:32;103795.46;;;7.55;36.42
52291;BME280;39663;45.432;28.050;2024-01-30T00:43:04;103792.11;;;7.11;39.20
52291;BME280;39663;45.432;28.050;2024-01-30T00:43:35;103791.59;;;7.55;37.81
52291;BME280;39663;45.432;28.050;2024-01-30T00:44:07;103792.83;;;7.93;37.97
52291;BME280;39663;45.432;28.050;2024-01-30T00:44:38;103790.65;;;7.32;38.39
52291;BME280;39663;45.432;28.050;2024-01-30T00:45:13;103789.69;;;7.76;36.88
52291;BME280;39663;45.432;28.050;2024-01-30T00:45:44;103792.94;;;7.27;36.32
52291;BME280;39663;45.432;28.050;2024-01-30T00:46:15;103792.60;;;7.58;39.35
52291;BME280;39663;45.432;28.050;2024-01-30T00:46:47;103793.16;;;8.00;36.94
52291;BME280;39663;45.432;28.050;2024-01-30T00:47:18;103792.59;;;5.70;37.63
52291;BME280;39663;45.432;28.050;2024-01-30T00:47:49;103791.68;;;6.09;39.42
52291;BME280;39663;45.432;28.050;2024-01-30T00:48:21;103788.98;;;7.10;39.47
52291;BME280;39663;45.432;28.050;2024-01-30T00:48:52;103788.85;;;6.87;36.45
52291;BME280;39663;45.432;28.050;2024-01-30T00:49:24;103786.55;;;6.53;40.10
52291;BME280;39663;45.432;28.050;2024-01-30T00:49:56;103790.05;;;7.42;39.28
52291;BME280;39663;45.432;28.050;2024-01-30T00:50:27;103789.44;;;7.81;38.47
52291;BME280;39663;45.432;28.050;2024-01-30T00:50:58;103788.11;;;8.18;36.10
52291;BME280;39663;45.432;28.050;2024-01-30T00:51:29;103786.65;;;6.98;37.78
52291;BME280;39663;45.432;28.050;2024-01-30T00:52:01;103791.39;;;7.59;38.83
52291;BME280;39663;45.432;28.050;2024-01-30T00:52:32;103784.15;;;7.58;37.40
52291;BME280;39663;45.432;28.050;2024-01-30T00:53:04;103784.79;;;7.96;38.10
52291;BME280;39663;45.432;28.050;2024-01-30T00:53:35;103784.04;;;8.20;37.52
52291;BME280;39663;45.432;28.050;2024-01-30T00:54:06;103784.98;;;7.25;35.72
52291;BME280;39663;45.432;28.050;2024-01-30T00:54:38;103786.26;;;7.42;38.40
52291;BME280;39663;45.432;28.050;2024-01-30T00:55:09;103785.03;;;8.05;37.73
52291;BME280;39663;45.432;28.050;2024-01-30T00:55:41;103784.68;;;7.81;37.07
52291;BME280;39663;45.432;28.050;2024-01-30T00:56:12;103786.60;;;7.36;38.43
52291;BME280;39663;45.432;28.050;2024-01-30T00:56:44;103781.85;;;7.81;36.62
52291;BME280;39663;45.432;28.050;2024-01-30T00:57:15;103777.30;;;7.66;35.88
52291;BME280;39663;45.432;28.050;2024-01-30T00:57:46;103778.21;;;8.24;37.20
52291;BME280;39663;45.432;28.050;2024-01-30T00:58:18;103778.76;;;7.96;35.59
52291;BME280;39663;45.432;28.050;2024-01-30T00:58:49;103779.06;;;8.05;36.34
52291;BME280;39663;45.432;28.050;2024-01-30T00:59:21;103778.79;;;7.89;35.23
52291;BME280;39663;45.432;28.050;2024-01-30T00:59:52;103779.11;;;7.33;36.14
52291;BME280;39663;45.432;28.050;2024-01-30T01:00:23;103781.12;;;7.52;36.98
52291;BME280;39663;45.432;28.050;2024-01-30T01:00:54;103777.42;;;7.58;38.23
52291;BME280;39663;45.432;28.050;2024-01-30T01:01:26;103772.77;;;7.89;37.23
52291;BME280;39663;45.432;28.050;2024-01-30T01:01:57;103775.44;;;7.78;35.74
52291;BME280;39663;45.432;28.050;2024-01-30T01:02:29;103778.13;;;7.52;37.52
52291;BME280;39663;45.432;28.050;2024-01-30T01:03:00;103776.50;;;7.46;37.33
52291;BME280;39663;45.432;28.050;2024-01-30T01:03:32;103774.44;;;7.62;38.14
52291;BME280;39663;45.432;28.050;2024-01-30T01:04:04;103769.62;;;7.61;35.57
52291;BME280;39663;45.432;28.050;2024-01-30T01:04:35;103778.11;;;7.84;38.08
52291;BME280;39663;45.432;28.050;2024-01-30T01:05:07;103773.01;;;7.39;36.02
52291;BME280;39663;45.432;28.050;2024-01-30T01:05:38;103774.68;;;6.66;36.68
52291;BME280;39663;45.432;28.050;2024-01-30T01:06:10;103776.39;;;6.53;36.85
52291;BME280;39663;45.432;28.050;2024-01-30T01:06:41;103775.34;;;7.06;39.44
52291;BME280;39663;45.432;28.050;2024-01-30T01:07:12;103778.55;;;7.59;38.84
52291;BME280;39663;45.432;28.050;2024-01-30T01:07:44;103776.31;;;7.51;37.12
52291;BME280;39663;45.432;28.050;2024-01-30T01:08:15;103772.34;;;7.81;37.43
52291;BME280;39663;45.432;28.050;2024-01-30T01:08:47;103768.03;;;7.55;36.46
52291;BME280;39663;45.432;28.050;2024-01-30T01:09:18;103778.40;;;7.36;38.05
52291;BME280;39663;45.432;28.050;2024-01-30T01:09:49;103772.41;;;7.37;38.74
52291;BME280;39663;45.432;28.050;2024-01-30T01:10:21;103771.41;;;7.78;37.48
52291;BME280;39663;45.432;28.050;2024-01-30T01:10:52;103770.95;;;7.29;36.21
52291;BME280;39663;45.432;28.050;2024-01-30T01:11:24;103772.76;;;6.73;39.20
52291;BME280;39663;45.432;28.050;2024-01-30T01:11:55;103771.42;;;6.76;38.00
52291;BME280;39663;45.432;28.050;2024-01-30T01:12:26;103769.02;;;7.36;39.31
52291;BME280;39663;45.432;28.050;2024-01-30T01:12:58;103766.24;;;7.87;38.82
52291;BME280;39663;45.432;28.050;2024-01-30T01:13:29;103764.12;;;7.80;35.86
52291;BME280;39663;45.432;28.050;2024-01-30T01:14:01;103762.76;;;7.58;37.65
52291;BME280;39663;45.432;28.050;2024-01-30T01:14:32;103761.40;;;7.52;36.36
52291;BME280;39663;45.432;28.050;2024-01-30T01:15:04;103759.63;;;7.94;38.28
52291;BME280;39663;45.432;28.050;2024-01-30T01:15:36;103764.59;;;8.12;36.52
52291;BME280;39663;45.432;28.050;2024-01-30T01:16:07;103766.46;;;5.92;38.06
52291;BME280;39663;45.432;28.050;2024-01-30T01:16:39;103761.24;;;7.08;38.56
52291;BME280;39663;45.432;28.050;2024-01-30T01:17:10;103758.17;;;7.52;38.50
52291;BME280;39663;45.432;28.050;2024-01-30T01:17:42;103759.09;;;7.86;37.81
52291;BME280;39663;45.432;28.050;2024-01-30T01:18:13;103756.78;;;6.32;37.25
52291;BME280;39663;45.432;28.050;2024-01-30T01:18:45;103759.76;;;7.14;37.59
52291;BME280;39663;45.432;28.050;2024-01-30T01:19:16;103762.40;;;7.38;38.59
52291;BME280;39663;45.432;28.050;2024-01-30T01:19:48;103762.38;;;6.39;38.96
52291;BME280;39663;45.432;28.050;2024-01-30T01:20:19;103759.45;;;6.27;36.97
52291;BME280;39663;45.432;28.050;2024-01-30T01:20:51;103759.51;;;6.27;39.04
52291;BME280;39663;45.432;28.050;2024-01-30T01:21:22;103761.59;;;6.71;37.28
52291;BME280;39663;45.432;28.050;2024-01-30T01:21:53;103761.16;;;7.38;39.24
52291;BME280;39663;45.432;28.050;2024-01-30T01:22:25;103759.23;;;6.79;37.44
52291;BME280;39663;45.432;28.050;2024-01-30T01:22:56;103760.53;;;5.81;38.76
52291;BME280;39663;45.432;28.050;2024-01-30T01:23:28;103757.79;;;5.62;39.00
52291;BME280;39663;45.432;28.050;2024-01-30T01:24:00;103758.27;;;5.85;39.43
52291;BME280;39663;45.432;28.050;2024-01-30T01:24:32;103759.25;;;6.99;38.39
52291;BME280;39663;45.432;28.050;2024-01-30T01:25:04;103760.63;;;6.77;39.47
52291;BME280;39663;45.432;28.050;2024-01-30T01:25:35;103751.92;;;7.44;39.18
52291;BME280;39663;45.432;28.050;2024-01-30T01:26:08;103755.14;;;6.89;37.10
52291;BME280;39663;45.432;28.050;2024-01-30T01:26:39;103756.89;;;7.33;37.39
52291;BME280;39663;45.432;28.050;2024-01-30T01:27:10;103755.29;;;7.21;39.30
52291;BME280;39663;45.432;28.050;2024-01-30T01:27:42;103752.38;;;6.87;37.31
52291;BME280;39663;45.432;28.050;2024-01-30T01:28:13;103753.49;;;6.56;39.03
52291;BME280;39663;45.432;28.050;2024-01-30T01:28:44;103750.61;;;6.67;38.03
52291;BME280;39663;45.432;28.050;2024-01-30T01:29:16;103754.39;;;6.02;39.20
52291;BME280;39663;45.432;28.050;2024-01-30T01:29:47;103754.99;;;6.66;37.26
52291;BME280;39663;45.432;28.050;2024-01-30T01:30:19;103753.15;;;6.50;37.65
52291;BME280;39663;45.432;28.050;2024-01-30T01:30:50;103755.85;;;6.72;39.97
52291;BME280;39663;45.432;28.050;2024-01-30T01:31:21;103758.18;;;7.13;38.11
52291;BME280;39663;45.432;28.050;2024-01-30T01:31:53;103762.76;;;5.42;38.33
52291;BME280;39663;45.432;28.050;2024-01-30T01:32:25;103762.58;;;5.60;40.46
52291;BME280;39663;45.432;28.050;2024-01-30T01:32:56;103762.92;;;6.04;38.65
52291;BME280;39663;45.432;28.050;2024-01-30T01:33:28;103763.48;;;5.27;40.87
52291;BME280;39663;45.432;28.050;2024-01-30T01:33:59;103762.16;;;6.17;38.78
52291;BME280;39663;45.432;28.050;2024-01-30T01:34:30;103763.54;;;5.74;39.27
52291;BME280;39663;45.432;28.050;2024-01-30T01:35:02;103768.10;;;6.17;40.67
52291;BME280;39663;45.432;28.050;2024-01-30T01:35:33;103760.62;;;5.86;41.12
52291;BME280;39663;45.432;28.050;2024-01-30T01:36:05;103756.47;;;6.59;40.36
52291;BME280;39663;45.432;28.050;2024-01-30T01:36:36;103757.74;;;6.74;38.92
52291;BME280;39663;45.432;28.050;2024-01-30T01:37:08;103758.90;;;6.95;38.38
52291;BME280;39663;45.432;28.050;2024-01-30T01:37:39;103755.18;;;6.51;38.34
52291;BME280;39663;45.432;28.050;2024-01-30T01:38:11;103756.16;;;7.12;39.70
52291;BME280;39663;45.432;28.050;2024-01-30T01:38:43;103754.82;;;6.96;37.82
52291;BME280;39663;45.432;28.050;2024-01-30T01:39:14;103756.02;;;7.03;38.59
52291;BME280;39663;45.432;28.050;2024-01-30T01:39:45;103756.76;;;6.39;37.10
52291;BME280;39663;45.432;28.050;2024-01-30T01:40:17;103754.74;;;6.99;39.67
52291;BME280;39663;45.432;28.050;2024-01-30T01:40:48;103754.78;;;7.29;39.05
52291;BME280;39663;45.432;28.050;2024-01-30T01:41:20;103754.58;;;7.39;37.59
52291;BME280;39663;45.432;28.050;2024-01-30T01:41:51;103752.93;;;7.53;38.42
52291;BME280;39663;45.432;28.050;2024-01-30T01:42:23;103751.69;;;7.63;38.85
52291;BME280;39663;45.432;28.050;2024-01-30T01:42:55;103753.42;;;7.91;38.63
52291;BME280;39663;45.432;28.050;2024-01-30T01:43:26;103754.76;;;8.30;38.40
52291;BME280;39663;45.432;28.050;2024-01-30T01:43:58;103757.58;;;7.95;38.81
52291;BME280;39663;45.432;28.050;2024-01-30T01:44:29;103758.77;;;8.04;37.19
52291;BME280;39663;45.432;28.050;2024-01-30T01:45:01;103758.51;;;7.88;37.72
52291;BME280;39663;45.432;28.050;2024-01-30T01:45:32;103760.97;;;7.61;36.77
52291;BME280;39663;45.432;28.050;2024-01-30T01:46:03;103767.24;;;7.10;37.01
52291;BME280;39663;45.432;28.050;2024-01-30T01:46:35;103765.83;;;6.53;38.47
52291;BME280;39663;45.432;28.050;2024-01-30T01:47:08;103767.35;;;6.31;38.52
52291;BME280;39663;45.432;28.050;2024-01-30T01:47:39;103769.15;;;6.69;38.01
52291;BME280;39663;45.432;28.050;2024-01-30T01:48:11;103771.11;;;6.66;38.62
52291;BME280;39663;45.432;28.050;2024-01-30T01:48:43;103773.63;;;7.22;38.22
52291;BME280;39663;45.432;28.050;2024-01-30T01:49:15;103772.24;;;7.10;38.00
52291;BME280;39663;45.432;28.050;2024-01-30T01:49:46;103773.74;;;7.46;36.94
52291;BME280;39663;45.432;28.050;2024-01-30T01:50:18;103777.96;;;7.22;37.15
52291;BME280;39663;45.432;28.050;2024-01-30T01:50:52;103778.21;;;6.37;37.42
52291;BME280;39663;45.432;28.050;2024-01-30T01:51:26;103774.72;;;6.75;38.96
52291;BME280;39663;45.432;28.050;2024-01-30T01:51:58;103778.89;;;7.26;38.43
52291;BME280;39663;45.432;28.050;2024-01-30T01:52:30;103780.23;;;7.72;38.78
52291;BME280;39663;45.432;28.050;2024-01-30T01:53:02;103780.04;;;7.30;36.32
52291;BME280;39663;45.432;28.050;2024-01-30T01:53:34;103783.22;;;7.46;37.69
52291;BME280;39663;45.432;28.050;2024-01-30T01:54:05;103783.01;;;7.10;36.26
52291;BME280;39663;45.432;28.050;2024-01-30T01:54:37;103784.73;;;7.59;38.48
52291;BME280;39663;45.432;28.050;2024-01-30T01:55:09;103779.49;;;8.30;38.18
52291;BME280;39663;45.432;28.050;2024-01-30T01:55:41;103780.27;;;8.13;37.44
52291;BME280;39663;45.432;28.050;2024-01-30T01:56:12;103779.14;;;8.26;37.22
52291;BME280;39663;45.432;28.050;2024-01-30T01:56:44;103777.42;;;8.41;37.04
52291;BME280;39663;45.432;28.050;2024-01-30T01:57:15;103778.97;;;8.44;36.85
52291;BME280;39663;45.432;28.050;2024-01-30T01:57:47;103777.69;;;8.36;34.72
52291;BME280;39663;45.432;28.050;2024-01-30T01:58:19;103778.39;;;8.57;35.86
52291;BME280;39663;45.432;28.050;2024-01-30T01:58:55;103779.20;;;8.65;34.92
52291;BME280;39663;45.432;28.050;2024-01-30T02:01:37;103781.43;;;6.85;37.57
52291;BME280;39663;45.432;28.050;2024-01-30T02:02:12;103782.26;;;7.04;37.00
52291;BME280;39663;45.432;28.050;2024-01-30T02:02:46;103782.31;;;7.20;37.63
52291;BME280;39663;45.432;28.050;2024-01-30T02:03:18;103777.25;;;7.61;37.92
52291;BME280;39663;45.432;28.050;2024-01-30T02:03:49;103777.02;;;7.66;36.43
52291;BME280;39663;45.432;28.050;2024-01-30T02:04:21;103777.05;;;7.92;36.71
52291;BME280;39663;45.432;28.050;2024-01-30T02:04:53;103774.30;;;8.25;37.26
52291;BME280;39663;45.432;28.050;2024-01-30T02:05:25;103776.13;;;7.16;34.66
52291;BME280;39663;45.432;28.050;2024-01-30T02:05:57;103777.06;;;7.34;35.28
52291;BME280;39663;45.432;28.050;2024-01-30T02:06:29;103780.78;;;6.40;36.25
52291;BME280;39663;45.432;28.050;2024-01-30T02:07:01;103780.55;;;7.46;37.54
52291;BME280;39663;45.432;28.050;2024-01-30T02:07:33;103778.89;;;7.56;35.58
52291;BME280;39663;45.432;28.050;2024-01-30T02:08:05;103774.21;;;7.57;35.04
52291;BME280;39663;45.432;28.050;2024-01-30T02:08:37;103779.73;;;7.10;35.29
52291;BME280;39663;45.432;28.050;2024-01-30T02:09:09;103781.02;;;6.55;35.94
52291;BME280;39663;45.432;28.050;2024-01-30T02:09:41;103783.50;;;6.43;35.40
52291;BME280;39663;45.432;28.050;2024-01-30T02:10:13;103781.33;;;6.63;36.07
52291;BME280;39663;45.432;28.050;2024-01-30T02:10:44;103779.60;;;7.50;37.38
52291;BME280;39663;45.432;28.050;2024-01-30T02:11:16;103776.63;;;7.21;35.55
52291;BME280;39663;45.432;28.050;2024-01-30T02:11:48;103776.27;;;7.52;37.07
52291;BME280;39663;45.432;28.050;2024-01-30T02:12:20;103770.45;;;8.15;36.11
52291;BME280;39663;45.432;28.050;2024-01-30T02:12:52;103769.21;;;8.08;35.85
52291;BME280;39663;45.432;28.050;2024-01-30T02:13:24;103772.67;;;8.44;36.01
52291;BME280;39663;45.432;28.050;2024-01-30T02:13:56;103771.31;;;7.56;35.90
52291;BME280;39663;45.432;28.050;2024-01-30T02:14:27;103770.70;;;7.60;35.32
52291;BME280;39663;45.432;28.050;2024-01-30T02:14:59;103767.22;;;7.66;34.18
52291;BME280;39663;45.432;28.050;2024-01-30T02:15:30;103770.11;;;7.80;34.23
52291;BME280;39663;45.432;28.050;2024-01-30T02:16:02;103772.78;;;6.47;35.45
52291;BME280;39663;45.432;28.050;2024-01-30T02:16:33;103774.05;;;7.52;36.30
52291;BME280;39663;45.432;28.050;2024-01-30T02:17:05;103776.81;;;6.82;36.28
52291;BME280;39663;45.432;28.050;2024-01-30T02:17:36;103776.82;;;7.26;35.81
52291;BME280;39663;45.432;28.050;2024-01-30T02:18:08;103776.98;;;7.25;37.04
52291;BME280;39663;45.432;28.050;2024-01-30T02:18:40;103773.46;;;7.27;36.33
52291;BME280;39663;45.432;28.050;2024-01-30T02:19:11;103776.00;;;6.52;36.47
52291;BME280;39663;45.432;28.050;2024-01-30T02:19:42;103774.50;;;6.54;36.76
52291;BME280;39663;45.432;28.050;2024-01-30T02:20:14;103774.53;;;6.89;38.54
52291;BME280;39663;45.432;28.050;2024-01-30T02:20:46;103775.90;;;7.46;37.98
52291;BME280;39663;45.432;28.050;2024-01-30T02:21:18;103775.26;;;7.55;36.75
52291;BME280;39663;45.432;28.050;2024-01-30T02:21:50;103775.64;;;6.95;36.07
52291;BME280;39663;45.432;28.050;2024-01-30T02:22:22;103774.43;;;6.33;36.47
52291;BME280;39663;45.432;28.050;2024-01-30T02:22:54;103777.04;;;6.98;37.29
52291;BME280;39663;45.432;28.050;2024-01-30T02:23:27;103776.42;;;7.38;37.43
52291;BME280;39663;45.432;28.050;2024-01-30T02:23:59;103776.04;;;7.67;37.11
52291;BME280;39663;45.432;28.050;2024-01-30T02:24:31;103773.10;;;7.90;36.90
52291;BME280;39663;45.432;28.050;2024-01-30T02:25:02;103772.03;;;8.18;36.02
52291;BME280;39663;45.432;28.050;2024-01-30T02:25:38;103779.01;;;7.42;35.14
52291;BME280;39663;45.432;28.050;2024-01-30T02:26:10;103777.27;;;7.38;37.49
52291;BME280;39663;45.432;28.050;2024-01-30T02:26:41;103775.37;;;8.05;37.31
52291;BME280;39663;45.432;28.050;2024-01-30T02:27:13;103777.67;;;7.83;36.11
52291;BME280;39663;45.432;28.050;2024-01-30T02:27:44;103779.73;;;7.31;37.48
52291;BME280;39663;45.432;28.050;2024-01-30T02:28:16;103778.83;;;7.37;37.01
52291;BME280;39663;45.432;28.050;2024-01-30T02:28:47;103776.91;;;7.69;37.56
52291;BME280;39663;45.432;28.050;2024-01-30T02:29:19;103775.88;;;7.76;36.07
52291;BME280;39663;45.432;28.050;2024-01-30T02:29:50;103777.04;;;7.84;36.75
52291;BME280;39663;45.432;28.050;2024-01-30T02:30:22;103781.41;;;7.16;36.94
52291;BME280;39663;45.432;28.050;2024-01-30T02:30:53;103780.34;;;7.88;37.27
52291;BME280;39663;45.432;28.050;2024-01-30T02:31:25;103780.86;;;7.82;36.78
52291;BME280;39663;45.432;28.050;2024-01-30T02:31:57;103778.34;;;8.32;36.57
52291;BME280;39663;45.432;28.050;2024-01-30T02:32:29;103779.06;;;8.00;36.19
52291;BME280;39663;45.432;28.050;2024-01-30T02:33:00;103780.77;;;8.04;36.79
52291;BME280;39663;45.432;28.050;2024-01-30T02:33:32;103779.16;;;7.77;35.24
52291;BME280;39663;45.432;28.050;2024-01-30T02:34:03;103781.05;;;7.08;36.40
52291;BME280;39663;45.432;28.050;2024-01-30T02:34:35;103781.38;;;7.46;36.17
52291;BME280;39663;45.432;28.050;2024-01-30T02:35:06;103779.56;;;7.91;36.57
52291;BME280;39663;45.432;28.050;2024-01-30T02:35:38;103779.79;;;7.91;36.89
52291;BME280;39663;45.432;28.050;2024-01-30T02:36:10;103782.92;;;7.61;35.80
52291;BME280;39663;45.432;28.050;2024-01-30T02:36:42;103785.30;;;7.08;36.59
52291;BME280;39663;45.432;28.050;2024-01-30T02:37:14;103784.67;;;7.11;36.50
52291;BME280;39663;45.432;28.050;2024-01-30T02:37:45;103786.88;;;7.66;36.94
52291;BME280;39663;45.432;28.050;2024-01-30T02:38:17;103786.94;;;8.01;36.96
52291;BME280;39663;45.432;28.050;2024-01-30T02:38:48;103790.35;;;7.21;37.78
52291;BME280;39663;45.432;28.050;2024-01-30T02:39:19;103789.46;;;6.22;37.16
52291;BME280;39663;45.432;28.050;2024-01-30T02:39:51;103792.44;;;6.12;37.04
52291;BME280;39663;45.432;28.050;2024-01-30T02:40:22;103792.16;;;6.11;38.31
52291;BME280;39663;45.432;28.050;2024-01-30T02:40:53;103793.34;;;5.97;37.79
52291;BME280;39663;45.432;28.050;2024-01-30T02:41:25;103793.69;;;5.70;38.33
52291;BME280;39663;45.432;28.050;2024-01-30T02:41:56;103791.96;;;6.43;38.58
52291;BME280;39663;45.432;28.050;2024-01-30T02:42:28;103790.52;;;6.74;38.22
52291;BME280;39663;45.432;28.050;2024-01-30T02:43:01;103787.22;;;6.79;37.78
52291;BME280;39663;45.432;28.050;2024-01-30T02:43:32;103792.74;;;6.52;38.05
52291;BME280;39663;45.432;28.050;2024-01-30T02:44:04;103789.39;;;7.03;38.82
52291;BME280;39663;45.432;28.050;2024-01-30T02:44:35;103789.98;;;6.68;37.31
52291;BME280;39663;45.432;28.050;2024-01-30T02:45:08;103791.80;;;7.07;38.89
52291;BME280;39663;45.432;28.050;2024-01-30T02:45:40;103786.10;;;7.39;37.33
52291;BME280;39663;45.432;28.050;2024-01-30T02:46:11;103790.10;;;7.46;38.30
52291;BME280;39663;45.432;28.050;2024-01-30T02:46:43;103789.94;;;7.45;37.71
52291;BME280;39663;45.432;28.050;2024-01-30T02:47:14;103791.12;;;7.63;37.66